Time;durP1;ratioP1;P1;durP2;ratioP2;P2;SDS_P1;SDS_P2;PMS_P1;PMS_P2;Temp;Humidity;BMP_temperature;BMP_pressure;BME280_temperature;BME280_humidity;BME280_pressure;Samples;Min_cycle;Max_cycle;Signal;HPM_P1;HPM_P2
2023/03/04 00:02:25;;;;;;;;;;;;;;;-145.06;100.00;60892.56;5950830;23;19908;-91
2023/03/04 00:05:04;;;;;;;;;;;;;;;-145.06;100.00;60892.56;5951283;23;19983;-91
2023/03/04 00:07:43;;;;;;;;;;;;;;;-145.06;100.00;60892.56;5950838;23;19972;-91
2023/03/04 00:10:24;;;;;;;;;;;;;;;-145.06;100.00;60892.56;5953079;23;19912;-90
2023/03/04 00:13:04;;;;;;;;;;;;;;;-145.06;100.00;60892.56;5947029;23;19900;-93
2023/03/04 00:15:43;;;;;;;;;;;;;;;-145.06;100.00;60892.56;5968621;23;19904;-92
2023/03/04 00:18:25;;;;;;;;;;;;;;;-145.06;100.00;60892.56;5957598;23;19920;-90
2023/03/04 00:21:04;;;;;;;;;;;;;;;-145.06;100.00;60892.56;5951701;23;19909;-91
2023/03/04 00:23:44;;;;;;;;;;;;;;;-145.06;100.00;60892.56;5951168;23;19913;-92
2023/03/04 00:26:23;;;;;;;;;;;;;;;-145.06;100.00;60892.56;5950550;23;19908;-91
2023/03/04 00:29:02;;;;;;;;;;;;;;;-145.06;100.00;60892.56;5951411;23;19909;-91
2023/03/04 00:31:41;;;;;;;;;;;;;;;-145.06;100.00;60892.56;5951948;23;19909;-90
2023/03/04 00:34:20;;;;;;;;;;;;;;;-145.06;100.00;60892.56;5951311;23;19912;-91
2023/03/04 00:37:00;;;;;;;;;;;;;;;-145.06;100.00;60892.56;5950797;23;19909;-91
2023/03/04 00:39:39;;;;;;;;;;;;;;;-145.06;100.00;60892.56;5950962;23;19912;-92
2023/03/04 00:42:18;;;;;;;;;;;;;;;-145.06;100.00;60892.56;5950111;23;19942;-92
2023/03/04 00:44:57;;;;;;;;;;;;;;;-145.06;100.00;60892.56;5950431;23;19912;-91
2023/03/04 00:47:36;;;;;;;;;;;;;;;-145.06;100.00;60892.56;5949835;23;19909;-91
2023/03/04 00:50:15;;;;;;;;;;;;;;;-145.06;100.00;60892.56;5951000;23;19916;-90
2023/03/04 00:52:54;;;;;;;;;;;;;;;-145.06;100.00;60892.56;5952370;23;19909;-92
2023/03/04 00:55:33;;;;;;;;;;;;;;;-145.06;100.00;60892.56;5951797;23;19909;-90
2023/03/04 00:58:13;;;;;;;;;;;;;;;-145.06;100.00;60892.56;5952452;23;19908;-90
2023/03/04 01:00:52;;;;;;;;;;;;;;;-145.06;100.00;60892.56;5953115;23;19912;-93
2023/03/04 01:03:31;;;;;;;;;;;;;;;-145.06;100.00;60892.56;5952563;23;19909;-91
2023/03/04 01:06:13;;;;;;;;;;;;;;;-145.06;100.00;60892.56;5952526;23;19936;-91
2023/03/04 01:08:52;;;;;;;;;;;;;;;-145.06;100.00;60892.56;5952536;23;19913;-91
2023/03/04 01:11:31;;;;;;;;;;;;;;;-145.06;100.00;60892.56;5952710;23;19909;-89
2023/03/04 01:14:10;;;;;;;;;;;;;;;-145.06;100.00;60892.56;5952948;23;19909;-91
2023/03/04 01:16:49;;;;;;;;;;;;;;;-145.06;100.00;60892.56;5952670;23;19928;-91
2023/03/04 01:19:28;;;;;;;;;;;;;;;-145.06;100.00;60892.56;5953253;23;19983;-90
2023/03/04 01:22:09;;;;;;;;;;;;;;;-145.06;100.00;60892.56;5953455;23;19913;-93
2023/03/04 01:24:48;;;;;;;;;;;;;;;-145.06;100.00;60892.56;5952190;23;19976;-91
2023/03/04 01:27:27;;;;;;;;;;;;;;;-145.06;100.00;60892.56;5952392;23;19909;-91
2023/03/04 01:30:10;;;;;;;;;;;;;;;-145.06;100.00;60892.56;5952456;23;19952;-91
2023/03/04 01:32:49;;;;;;;;;;;;;;;-145.06;100.00;60892.56;5952408;23;19908;-93
2023/03/04 01:35:28;;;;;;;;;;;;;;;-145.06;100.00;60892.56;5952458;23;19908;-91
2023/03/04 01:38:07;;;;;;;;;;;;;;;-145.06;100.00;60892.56;5952578;23;19913;-92
2023/03/04 01:40:48;;;;;;;;;;;;;;;-145.06;100.00;60892.56;5952441;23;20221;-91
2023/03/04 01:43:28;;;;;;;;;;;;;;;-145.06;100.00;60892.56;5952407;23;19913;-92
2023/03/04 01:46:08;;;;;;;;;;;;;;;-145.06;100.00;60892.56;5952219;23;19917;-90
2023/03/04 01:48:47;;;;;;;;;;;;;;;-145.06;100.00;60892.56;5952475;23;19960;-91
2023/03/04 01:51:26;;;;;;;;;;;;;;;-145.06;100.00;60892.56;5952100;23;19912;-90
2023/03/04 01:54:05;;;;;;;;;;;;;;;-145.06;100.00;60892.56;5952739;23;19909;-92
2023/03/04 01:56:45;;;;;;;;;;;;;;;-145.06;100.00;60892.56;5952346;23;19948;-91
2023/03/04 01:59:25;;;;;;;;;;;;;;;-145.06;100.00;60892.56;5952022;23;19909;-91
2023/03/04 02:02:04;;;;;;;;;;;;;;;-145.06;100.00;60892.56;5951596;23;19912;-90
2023/03/04 02:04:43;;;;;;;;;;;;;;;-145.06;100.00;60892.56;5952066;23;19908;-91
2023/03/04 02:07:22;;;;;;;;;;;;;;;-145.06;100.00;60892.56;5952091;23;20451;-91
2023/03/04 02:10:01;;;;;;;;;;;;;;;-145.06;100.00;60892.56;5951700;23;19913;-90
2023/03/04 02:12:40;;;;;;;;;;;;;;;-145.06;100.00;60892.56;5952530;23;19952;-92
2023/03/04 02:15:20;;;;;;;;;;;;;;;-145.06;100.00;60892.56;5952199;23;20224;-90
2023/03/04 02:18:02;;;;;;;;;;;;;;;-145.06;100.00;60892.56;5952028;23;20212;-90
2023/03/04 02:20:42;;;;;;;;;;;;;;;-145.06;100.00;60892.56;5951976;23;19908;-91
2023/03/04 02:23:41;;;;;;;;;;;;;;;-145.06;100.00;60892.56;5932901;23;19909;-92
2023/03/04 02:26:25;;;;;;;;;;;;;;;-145.06;100.00;60892.56;5967567;23;19948;-91
2023/03/04 02:29:04;;;;;;;;;;;;;;;-145.06;100.00;60892.56;5968884;23;19905;-92
2023/03/04 02:31:45;;;;;;;;;;;;;;;-145.06;100.00;60892.56;5959682;23;19920;-90
2023/03/04 02:34:26;;;;;;;;;;;;;;;-145.06;100.00;60892.56;5952379;23;19932;-92
2023/03/04 02:37:05;;;;;;;;;;;;;;;-145.06;100.00;60892.56;5952100;23;19908;-91
2023/03/04 02:39:46;;;;;;;;;;;;;;;-145.06;100.00;60892.56;5951285;23;19905;-91
2023/03/04 02:42:25;;;;;;;;;;;;;;;-145.06;100.00;60892.56;5951390;23;19913;-91
2023/03/04 02:45:04;;;;;;;;;;;;;;;-145.06;100.00;60892.56;5952440;23;19909;-90
2023/03/04 02:47:43;;;;;;;;;;;;;;;-145.06;100.00;60892.56;5951874;23;20348;-92
2023/03/04 02:50:23;;;;;;;;;;;;;;;-145.06;100.00;60892.56;5951800;23;19912;-91
2023/03/04 02:53:02;;;;;;;;;;;;;;;-145.06;100.00;60892.56;5951065;23;19909;-91
2023/03/04 02:55:42;;;;;;;;;;;;;;;-145.06;100.00;60892.56;5951169;23;19944;-91
2023/03/04 02:58:21;;;;;;;;;;;;;;;-145.06;100.00;60892.56;5951676;23;19913;-91
2023/03/04 03:01:00;;;;;;;;;;;;;;;-145.06;100.00;60892.56;5951806;23;19928;-91
2023/03/04 03:03:39;;;;;;;;;;;;;;;-145.06;100.00;60892.56;5950462;23;19913;-92
2023/03/04 03:06:18;;;;;;;;;;;;;;;-145.06;100.00;60892.56;5951993;23;19912;-92
2023/03/04 03:08:57;;;;;;;;;;;;;;;-145.06;100.00;60892.56;5950497;23;19917;-90
2023/03/04 03:11:36;;;;;;;;;;;;;;;-145.06;100.00;60892.56;5951608;23;19909;-91
2023/03/04 03:14:15;;;;;;;;;;;;;;;-145.06;100.00;60892.56;5950518;23;19917;-91
2023/03/04 03:16:54;;;;;;;;;;;;;;;-145.06;100.00;60892.56;5950385;23;19932;-92
2023/03/04 03:19:33;;;;;;;;;;;;;;;-145.06;100.00;60892.56;5950990;23;19909;-90
2023/03/04 03:22:12;;;;;;;;;;;;;;;-145.06;100.00;60892.56;5951012;23;19909;-91
2023/03/04 03:24:51;;;;;;;;;;;;;;;-145.06;100.00;60892.56;5950297;23;19909;-91
2023/03/04 03:27:30;;;;;;;;;;;;;;;-145.06;100.00;60892.56;5951194;23;20011;-92
2023/03/04 03:30:13;;;;;;;;;;;;;;;-145.06;100.00;60892.56;5930456;23;19912;-91
2023/03/04 03:32:52;;;;;;;;;;;;;;;-145.06;100.00;60892.56;5951351;23;19908;-91
2023/03/04 03:35:31;;;;;;;;;;;;;;;-145.06;100.00;60892.56;5951069;23;19976;-91
2023/03/04 03:38:10;;;;;;;;;;;;;;;-145.06;100.00;60892.56;5950465;23;19908;-92
2023/03/04 03:40:49;;;;;;;;;;;;;;;-145.06;100.00;60892.56;5951192;23;19908;-91
2023/03/04 03:43:28;;;;;;;;;;;;;;;-145.06;100.00;60892.56;5951533;23;20204;-90
2023/03/04 03:46:07;;;;;;;;;;;;;;;-145.06;100.00;60892.56;5951017;23;19912;-91
2023/03/04 03:48:49;;;;;;;;;;;;;;;-145.06;100.00;60892.56;5951217;23;19984;-90
2023/03/04 03:51:28;;;;;;;;;;;;;;;-145.06;100.00;60892.56;5950879;23;19912;-90
2023/03/04 03:54:07;;;;;;;;;;;;;;;-145.06;100.00;60892.56;5950873;23;20308;-91
2023/03/04 03:56:47;;;;;;;;;;;;;;;-145.06;100.00;60892.56;5950974;23;19908;-91
2023/03/04 03:59:26;;;;;;;;;;;;;;;-145.06;100.00;60892.56;5950010;23;20251;-92
2023/03/04 04:02:05;;;;;;;;;;;;;;;-145.06;100.00;60892.56;5950701;23;19948;-91
2023/03/04 04:04:44;;;;;;;;;;;;;;;-145.06;100.00;60892.56;5950979;23;20319;-91
2023/03/04 04:07:22;;;;;;;;;;;;;;;-145.06;100.00;60892.56;5951136;23;19913;-91
2023/03/04 04:10:02;;;;;;;;;;;;;;;-145.06;100.00;60892.56;5961351;23;19913;-90
2023/03/04 04:12:41;;;;;;;;;;;;;;;-145.06;100.00;60892.56;5951587;23;19909;-91
2023/03/04 04:15:20;;;;;;;;;;;;;;;-145.06;100.00;60892.56;5951401;23;19913;-92
2023/03/04 04:17:59;;;;;;;;;;;;;;;-145.06;100.00;60892.56;5950831;23;19909;-91
2023/03/04 04:20:38;;;;;;;;;;;;;;;-145.06;100.00;60892.56;5952150;23;19909;-92
2023/03/04 04:23:17;;;;;;;;;;;;;;;-145.06;100.00;60892.56;5962747;23;19912;-90
2023/03/04 04:25:59;;;;;;;;;;;;;;;-145.06;100.00;60892.56;5952379;23;19908;-91
2023/03/04 04:28:38;;;;;;;;;;;;;;;-145.06;100.00;60892.56;5953342;23;19909;-91
2023/03/04 04:31:19;;;;;;;;;;;;;;;-145.06;100.00;60892.56;5953464;23;19916;-91
2023/03/04 04:33:59;;;;;;;;;;;;;;;-145.06;100.00;60892.56;5953194;23;19909;-92
2023/03/04 04:36:40;;;;;;;;;;;;;;;-145.06;100.00;60892.56;5955204;23;19908;-92
2023/03/04 04:39:19;;;;;;;;;;;;;;;-145.06;100.00;60892.56;5946226;23;19928;-90
2023/03/04 04:41:58;;;;;;;;;;;;;;;-145.06;100.00;60892.56;5969993;23;19909;-92
2023/03/04 04:44:37;;;;;;;;;;;;;;;-145.06;100.00;60892.56;5963804;23;19948;-91
2023/03/04 04:47:16;;;;;;;;;;;;;;;-145.06;100.00;60892.56;5953351;23;19909;-91
2023/03/04 04:49:55;;;;;;;;;;;;;;;-145.06;100.00;60892.56;5953612;23;19908;-92
2023/03/04 04:52:35;;;;;;;;;;;;;;;-145.06;100.00;60892.56;5953278;23;20378;-92
2023/03/04 04:55:14;;;;;;;;;;;;;;;-145.06;100.00;60892.56;5953208;23;19908;-91
2023/03/04 04:57:55;;;;;;;;;;;;;;;-145.06;100.00;60892.56;5953212;23;19909;-91
2023/03/04 05:00:37;;;;;;;;;;;;;;;-145.06;100.00;60892.56;5953183;23;19908;-90
2023/03/04 05:03:18;;;;;;;;;;;;;;;-145.06;100.00;60892.56;5953131;23;19944;-91
2023/03/04 05:05:57;;;;;;;;;;;;;;;-145.06;100.00;60892.56;5952688;23;19913;-92
2023/03/04 05:08:37;;;;;;;;;;;;;;;-145.06;100.00;60892.56;5931990;23;19909;-90
2023/03/04 05:11:18;;;;;;;;;;;;;;;-145.06;100.00;60892.56;5952491;23;19917;-91
2023/03/04 05:14:04;;;;;;;;;;;;;;;-145.06;100.00;60892.56;5952646;23;20023;-90
2023/03/04 05:16:43;;;;;;;;;;;;;;;-145.06;100.00;60892.56;5953037;23;19913;-90
2023/03/04 05:19:23;;;;;;;;;;;;;;;-145.06;100.00;60892.56;5951844;23;19909;-90
2023/03/04 05:22:02;;;;;;;;;;;;;;;-145.06;100.00;60892.56;5951172;23;19909;-91
2023/03/04 05:24:40;;;;;;;;;;;;;;;-145.06;100.00;60892.56;5951458;23;19908;-90
2023/03/04 05:27:19;;;;;;;;;;;;;;;-145.06;100.00;60892.56;5951770;23;19913;-91
2023/03/04 05:29:58;;;;;;;;;;;;;;;-145.06;100.00;60892.56;5950675;23;19912;-91
2023/03/04 05:32:40;;;;;;;;;;;;;;;-145.06;100.00;60892.56;5953232;23;19987;-91
2023/03/04 05:35:19;;;;;;;;;;;;;;;-145.06;100.00;60892.56;5952555;23;19909;-91
2023/03/04 05:37:58;;;;;;;;;;;;;;;-145.06;100.00;60892.56;5952545;23;19908;-90
2023/03/04 05:40:37;;;;;;;;;;;;;;;-145.06;100.00;60892.56;5953204;23;19987;-90
2023/03/04 05:43:16;;;;;;;;;;;;;;;-145.06;100.00;60892.56;5952455;23;19916;-92
2023/03/04 05:45:57;;;;;;;;;;;;;;;-145.06;100.00;60892.56;5952072;23;19913;-91
2023/03/04 05:48:36;;;;;;;;;;;;;;;-145.06;100.00;60892.56;5930793;23;19909;-90
2023/03/04 05:51:15;;;;;;;;;;;;;;;-145.06;100.00;60892.56;5951727;23;19917;-90
2023/03/04 05:53:57;;;;;;;;;;;;;;;-145.06;100.00;60892.56;5951450;23;19908;-91
2023/03/04 05:56:38;;;;;;;;;;;;;;;-145.06;100.00;60892.56;5952257;23;19909;-91
2023/03/04 05:59:19;;;;;;;;;;;;;;;-145.06;100.00;60892.56;5930258;23;19936;-91
2023/03/04 06:01:58;;;;;;;;;;;;;;;-145.06;100.00;60892.56;5950517;23;19948;-90
2023/03/04 06:04:37;;;;;;;;;;;;;;;-145.06;100.00;60892.56;5950596;23;19987;-91
2023/03/04 06:07:16;;;;;;;;;;;;;;;-145.06;100.00;60892.56;5949188;23;19908;-90
2023/03/04 06:09:56;;;;;;;;;;;;;;;-145.06;100.00;60892.56;5950148;23;19939;-89
2023/03/04 06:12:35;;;;;;;;;;;;;;;-145.06;100.00;60892.56;5950116;23;19979;-91
2023/03/04 06:15:14;;;;;;;;;;;;;;;-145.06;100.00;60892.56;5950040;23;19927;-89
2023/03/04 06:17:52;;;;;;;;;;;;;;;-145.06;100.00;60892.56;5950128;23;19987;-91
2023/03/04 06:20:32;;;;;;;;;;;;;;;-145.06;100.00;60892.56;5950150;23;19909;-91
2023/03/04 06:23:11;;;;;;;;;;;;;;;-145.06;100.00;60892.56;5950999;23;19949;-90
2023/03/04 06:25:50;;;;;;;;;;;;;;;-145.06;100.00;60892.56;5949615;23;19908;-90
2023/03/04 06:28:29;;;;;;;;;;;;;;;-145.06;100.00;60892.56;5949808;23;19908;-90
2023/03/04 06:31:08;;;;;;;;;;;;;;;-145.06;100.00;60892.56;5949771;23;20213;-91
2023/03/04 06:33:47;;;;;;;;;;;;;;;-145.06;100.00;60892.56;5949135;23;19917;-90
2023/03/04 06:36:28;;;;;;;;;;;;;;;-145.06;100.00;60892.56;5949884;23;19912;-91
2023/03/04 06:39:07;;;;;;;;;;;;;;;-145.06;100.00;60892.56;5949544;23;19917;-90
2023/03/04 06:41:47;;;;;;;;;;;;;;;-145.06;100.00;60892.56;5949752;23;19912;-92
2023/03/04 06:44:26;;;;;;;;;;;;;;;-145.06;100.00;60892.56;5949279;23;19905;-91
2023/03/04 06:47:05;;;;;;;;;;;;;;;-145.06;100.00;60892.56;5950902;23;19908;-91
2023/03/04 06:49:44;;;;;;;;;;;;;;;-145.06;100.00;60892.56;5951188;23;19909;-91
2023/03/04 06:52:23;;;;;;;;;;;;;;;-145.06;100.00;60892.56;5974378;23;19905;-92
2023/03/04 06:55:02;;;;;;;;;;;;;;;-145.06;100.00;60892.56;5967599;23;19905;-92
2023/03/04 06:57:44;;;;;;;;;;;;;;;-145.06;100.00;60892.56;5955336;23;19988;-92
2023/03/04 07:00:23;;;;;;;;;;;;;;;-145.06;100.00;60892.56;5948201;23;19928;-91
2023/03/04 07:03:02;;;;;;;;;;;;;;;-145.06;100.00;60892.56;5949494;23;19908;-91
2023/03/04 07:06:01;;;;;;;;;;;;;;;-145.06;100.00;60892.56;5929020;23;19943;-91
2023/03/04 07:08:58;;;;;;;;;;;;;;;-145.06;100.00;60892.56;5929090;23;19909;-92
2023/03/04 07:11:37;;;;;;;;;;;;;;;-145.06;100.00;60892.56;5949366;23;19917;-91
2023/03/04 07:14:28;;;;;;;;;;;;;;;-145.06;100.00;60892.56;5949136;23;20217;-92
2023/03/04 07:17:10;;;;;;;;;;;;;;;-145.06;100.00;60892.56;5947593;23;19916;-91
2023/03/04 07:20:02;;;;;;;;;;;;;;;-145.06;100.00;60892.56;5948822;23;19905;-90
2023/03/04 07:22:44;;;;;;;;;;;;;;;-145.06;100.00;60892.56;5947939;23;19909;-91
2023/03/04 07:25:37;;;;;;;;;;;;;;;-145.06;100.00;60892.56;5948637;23;19909;-91
2023/03/04 07:28:22;;;;;;;;;;;;;;;-145.06;100.00;60892.56;5947503;23;19909;-90
2023/03/04 07:31:20;;;;;;;;;;;;;;;-145.06;100.00;60892.56;5947432;23;19912;-91
2023/03/04 07:34:00;;;;;;;;;;;;;;;-145.06;100.00;60892.56;5926688;23;19908;-90
2023/03/04 07:36:40;;;;;;;;;;;;;;;-145.06;100.00;60892.56;5948114;23;19909;-91
2023/03/04 07:39:19;;;;;;;;;;;;;;;-145.06;100.00;60892.56;5948788;23;19909;-91
2023/03/04 07:42:01;;;;;;;;;;;;;;;-145.06;100.00;60892.56;5948642;23;19940;-92
2023/03/04 07:44:56;;;;;;;;;;;;;;;-145.06;100.00;60892.56;5949045;23;19909;-91
2023/03/04 07:47:45;;;;;;;;;;;;;;;-145.06;100.00;60892.56;5948757;23;19913;-90
2023/03/04 07:50:35;;;;;;;;;;;;;;;-145.06;100.00;60892.56;5927694;23;19912;-91
2023/03/04 07:53:20;;;;;;;;;;;;;;;-145.06;100.00;60892.56;5959459;23;19909;-91
2023/03/04 07:56:33;;;;;;;;;;;;;;;-145.06;100.00;60892.56;5949154;23;19908;-90
2023/03/04 08:02:55;;;;;;;;;;;;;;;-145.06;100.00;60892.56;5931001;23;19908;-92
2023/03/04 08:05:52;;;;;;;;;;;;;;;-145.06;100.00;60892.56;5929870;23;19908;-92
2023/03/04 08:09:12;;;;;;;;;;;;;;;-145.06;100.00;60892.56;5949812;23;19908;-91
2023/03/04 08:12:28;;;;;;;;;;;;;;;-145.06;100.00;60892.56;5949399;23;19913;-92
2023/03/04 08:25:30;;;;;;;;;;;;;;;-145.06;100.00;60892.56;5844767;23;19906;-92
2023/03/04 08:32:03;;;;;;;;;;;;;;;;;;;;;
2023/03/04 08:41:32;;;;;;;;;;;;;;;-145.06;100.00;60892.56;5789813;24;19915;-91
2023/03/04 08:45:11;;;;;;;;;;;;;;;;;;;;;
2023/03/04 08:51:45;;;;;;;;;;;;;;;-145.06;100.00;60892.56;5715464;24;19916;-92
2023/03/04 08:58:04;;;;;;;;;;;;;;;-145.06;100.00;60892.56;5853143;23;19910;-93
2023/03/04 09:01:15;;;;;;;;;;;;;;;-145.06;100.00;60892.56;5843639;23;19910;-92
2023/03/04 09:04:40;;;;;;;;;;;;;;;;;;;;;
2023/03/04 09:09:49;;;;;;;;;;;;;;;-145.06;100.00;60892.56;5961428;23;19971;-91
2023/03/04 09:12:49;;;;;;;;;;;;;;;-145.06;100.00;60892.56;5961707;23;19908;-91
2023/03/04 09:15:38;;;;;;;;;;;;;;;-145.06;100.00;60892.56;5957962;23;20362;-91
2023/03/04 09:18:55;;;;;;;;;;;;;;;-145.06;100.00;60892.56;5957498;23;19913;-91
2023/03/04 09:21:26;;;;;;;;;;;;;;;-145.06;100.00;60892.56;5979766;23;19916;-91
2023/03/04 09:24:10;;;;;;;;;;;;;;;-145.06;100.00;60892.56;5957000;23;19909;-91
2023/03/04 09:27:10;;;;;;;;;;;;;;;-145.06;100.00;60892.56;5957022;23;19908;-92
2023/03/04 09:30:13;;;;;;;;;;;;;;;-145.06;100.00;60892.56;5956585;23;19912;-92
2023/03/04 09:33:09;;;;;;;;;;;;;;;-145.06;100.00;60892.56;5957603;23;19908;-92
2023/03/04 09:35:51;;;;;;;;;;;;;;;-145.06;100.00;60892.56;5956843;23;19951;-92
2023/03/04 09:38:42;;;;;;;;;;;;;;;-145.06;100.00;60892.56;5957849;23;20315;-92
2023/03/04 09:44:58;;;;;;;;;;;;;;;-145.06;100.00;60892.56;5990785;23;19908;-91
2023/03/04 09:48:29;;;;;;;;;;;;;;;;;;;;;
2023/03/04 09:54:43;;;;;;;;;;;;;;;;;;;;;
2023/03/04 09:57:59;;;;;;;;;;;;;;;;;;;;;
2023/03/04 10:01:00;;;;;;;;;;;;;;;-145.06;100.00;60892.56;5963642;23;19908;-90
2023/03/04 10:03:49;;;;;;;;;;;;;;;-145.06;100.00;60892.56;5960099;23;19908;-91
2023/03/04 10:06:53;;;;;;;;;;;;;;;-145.06;100.00;60892.56;5958671;23;19948;-90
2023/03/04 10:12:57;;;;;;;;;;;;;;;-145.06;100.00;60892.56;5980413;23;19983;-92
2023/03/04 10:25:52;;;;;;;;;;;;;;;-145.06;100.00;60892.56;5963325;23;19909;-90
2023/03/04 10:32:01;;;;;;;;;;;;;;;;;;;;;
2023/03/04 10:34:59;;;;;;;;;;;;;;;-145.06;100.00;60892.56;5990195;23;19908;-91
2023/03/04 10:38:07;;;;;;;;;;;;;;;;;;;;;
2023/03/04 10:41:14;;;;;;;;;;;;;;;-145.06;100.00;60892.56;5990090;23;19936;-92
2023/03/04 10:44:03;;;;;;;;;;;;;;;-145.06;100.00;60892.56;5980245;23;19908;-91
2023/03/04 10:46:49;;;;;;;;;;;;;;;-145.06;100.00;60892.56;5957857;23;20220;-91
2023/03/04 10:49:29;;;;;;;;;;;;;;;-145.06;100.00;60892.56;5955142;23;20141;-91
2023/03/04 10:52:18;;;;;;;;;;;;;;;-145.06;100.00;60892.56;5955067;23;19952;-91
2023/03/04 10:58:18;;;;;;;;;;;;;;;-145.06;100.00;60892.56;5958117;23;19909;-92
2023/03/04 11:01:01;;;;;;;;;;;;;;;-145.06;100.00;60892.56;5955211;23;19996;-91
2023/03/04 11:04:02;;;;;;;;;;;;;;;-145.06;100.00;60892.56;5955494;23;19909;-92
2023/03/04 11:06:45;;;;;;;;;;;;;;;-145.06;100.00;60892.56;5956341;23;20331;-90
2023/03/04 11:10:01;;;;;;;;;;;;;;;;;;;;;
2023/03/04 11:13:05;;;;;;;;;;;;;;;-145.06;100.00;60892.56;5986298;23;19916;-91
2023/03/04 11:16:25;;;;;;;;;;;;;;;-145.06;100.00;60892.56;5956758;23;19913;-91
2023/03/04 11:24:53;;;;;;;;;;;;;;;;;;;;;
2023/03/04 11:27:47;;;;;;;;;;;;;;;-145.06;100.00;60892.56;5956983;23;19909;-91
2023/03/04 11:30:48;;;;;;;;;;;;;;;-145.06;100.00;60892.56;5927844;23;19993;-93
2023/03/04 11:33:57;;;;;;;;;;;;;;;-145.06;100.00;60892.56;5928342;23;19909;-91
2023/03/04 11:40:06;;;;;;;;;;;;;;;-145.06;100.00;60892.56;5959089;23;19909;-90
2023/03/04 11:42:50;;;;;;;;;;;;;;;-145.06;100.00;60892.56;5927822;23;19908;-91
2023/03/04 11:45:50;;;;;;;;;;;;;;;-145.06;100.00;60892.56;5928173;23;19909;-91
2023/03/04 11:48:41;;;;;;;;;;;;;;;-145.06;100.00;60892.56;5928325;23;20331;-91
2023/03/04 11:51:59;;;;;;;;;;;;;;;;;;;;;
2023/03/04 11:55:12;;;;;;;;;;;;;;;-145.06;100.00;60892.56;5958475;23;20545;-92
2023/03/04 11:58:37;;;;;;;;;;;;;;;-145.06;100.00;60892.56;5927917;23;19912;-91
2023/03/04 12:01:41;;;;;;;;;;;;;;;;;;;;;
2023/03/04 12:04:34;;;;;;;;;;;;;;;-145.06;100.00;60892.56;5958436;23;19913;-92
2023/03/04 12:07:21;;;;;;;;;;;;;;;-145.06;100.00;60892.56;5927202;23;19912;-92
2023/03/04 12:10:27;;;;;;;;;;;;;;;-145.06;100.00;60892.56;5926903;23;19916;-91
2023/03/04 12:13:35;;;;;;;;;;;;;;;-145.06;100.00;60892.56;5928291;23;19908;-90
2023/03/04 12:16:22;;;;;;;;;;;;;;;-145.06;100.00;60892.56;5927425;23;19932;-91
2023/03/04 12:19:15;;;;;;;;;;;;;;;-145.06;100.00;60892.56;5927720;23;19979;-92
2023/03/04 12:22:10;;;;;;;;;;;;;;;;;;;;;
2023/03/04 12:25:06;;;;;;;;;;;;;;;-145.06;100.00;60892.56;5958919;23;20313;-93
2023/03/04 12:28:10;;;;;;;;;;;;;;;-145.06;100.00;60892.56;5927026;23;19908;-92
2023/03/04 12:31:05;;;;;;;;;;;;;;;-145.06;100.00;60892.56;5927461;23;19912;-92
2023/03/04 12:34:05;;;;;;;;;;;;;;;-145.06;100.00;60892.56;5927290;23;19912;-92
2023/03/04 12:37:09;;;;;;;;;;;;;;;;;;;;;
2023/03/04 12:40:07;;;;;;;;;;;;;;;-145.06;100.00;60892.56;5960742;23;19909;-92
2023/03/04 12:46:11;;;;;;;;;;;;;;;-145.06;100.00;60892.56;5959202;23;19932;-92
2023/03/04 12:49:05;;;;;;;;;;;;;;;-145.06;100.00;60892.56;5929511;23;19913;-92
2023/03/04 12:55:31;;;;;;;;;;;;;;;-145.06;100.00;60892.56;5930950;23;19912;-91
2023/03/04 12:58:36;;;;;;;;;;;;;;;-145.06;100.00;60892.56;5929934;23;20093;-92
2023/03/04 13:01:41;;;;;;;;;;;;;;;-145.06;100.00;60892.56;5929663;23;20225;-91
2023/03/04 13:04:51;;;;;;;;;;;;;;;-145.06;100.00;60892.56;5930354;23;19909;-91
2023/03/04 13:08:07;;;;;;;;;;;;;;;-145.06;100.00;60892.56;5924552;23;19908;-92
2023/03/04 13:11:49;;;;;;;;;;;;;;;;;;;;;
2023/03/04 13:17:53;;;;;;;;;;;;;;;-145.06;100.00;60892.56;5961114;23;19916;-91
2023/03/04 13:20:45;;;;;;;;;;;;;;;-145.06;100.00;60892.56;5956380;23;20003;-92
2023/03/04 13:27:37;;;;;;;;;;;;;;;;;;;;;
2023/03/04 13:34:00;;;;;;;;;;;;;;;-145.06;100.00;60892.56;5923865;23;19926;-92
2023/03/04 13:36:58;;;;;;;;;;;;;;;-145.06;100.00;60892.56;5951692;23;19912;-91
2023/03/04 13:40:23;;;;;;;;;;;;;;;-145.06;100.00;60892.56;5942092;23;20381;-93
2023/03/04 13:43:41;;;;;;;;;;;;;;;;;;;;;
2023/03/04 13:46:22;;;;;;;;;;;;;;;-145.06;100.00;60892.56;5952314;23;19912;-92
2023/03/04 13:49:23;;;;;;;;;;;;;;;-145.06;100.00;60892.56;5926664;23;19912;-91
2023/03/04 13:52:21;;;;;;;;;;;;;;;-145.06;100.00;60892.56;5944601;23;19921;-91
2023/03/04 13:55:18;;;;;;;;;;;;;;;-145.06;100.00;60892.56;5984976;23;19912;-92
2023/03/04 13:58:14;;;;;;;;;;;;;;;-145.06;100.00;60892.56;5947612;23;19908;-91
2023/03/04 14:00:54;;;;;;;;;;;;;;;-145.06;100.00;60892.56;5951130;23;19991;-91
2023/03/04 14:03:36;;;;;;;;;;;;;;;-145.06;100.00;60892.56;5952857;23;19913;-91
2023/03/04 14:06:26;;;;;;;;;;;;;;;-145.06;100.00;60892.56;5953176;23;19908;-92
2023/03/04 14:09:14;;;;;;;;;;;;;;;-145.06;100.00;60892.56;5952668;23;19912;-92
2023/03/04 14:11:56;;;;;;;;;;;;;;;-145.06;100.00;60892.56;5952134;23;19920;-91
2023/03/04 14:14:52;;;;;;;;;;;;;;;-145.06;100.00;60892.56;5954267;23;19908;-92
2023/03/04 14:17:58;;;;;;;;;;;;;;;-145.06;100.00;60892.56;5952382;23;19987;-93
2023/03/04 14:20:38;;;;;;;;;;;;;;;-145.06;100.00;60892.56;5953168;23;19916;-92
2023/03/04 14:23:23;;;;;;;;;;;;;;;-145.06;100.00;60892.56;5953519;23;20276;-91
2023/03/04 14:26:34;;;;;;;;;;;;;;;;;;;;;
2023/03/04 14:29:26;;;;;;;;;;;;;;;-145.06;100.00;60892.56;5985184;23;19904;-91
2023/03/04 14:32:23;;;;;;;;;;;;;;;-145.06;100.00;60892.56;5953299;23;20328;-91
2023/03/04 14:35:08;;;;;;;;;;;;;;;-145.06;100.00;60892.56;5953200;23;20390;-92
2023/03/04 14:37:51;;;;;;;;;;;;;;;-145.06;100.00;60892.56;5954545;23;19908;-92
2023/03/04 14:40:48;;;;;;;;;;;;;;;-145.06;100.00;60892.56;5953913;23;19908;-94
2023/03/04 14:43:32;;;;;;;;;;;;;;;-145.06;100.00;60892.56;5943530;23;19912;-92
2023/03/04 14:46:24;;;;;;;;;;;;;;;-145.06;100.00;60892.56;5948256;23;19912;-91
2023/03/04 14:52:39;;;;;;;;;;;;;;;-145.06;100.00;60892.56;5984817;23;19904;-94
2023/03/04 14:55:27;;;;;;;;;;;;;;;-145.06;100.00;60892.56;5968446;23;20323;-93
2023/03/04 15:10:57;;;;;;;;;;;;;;;-145.06;100.00;60892.56;5943885;23;19999;-94
2023/03/04 15:13:46;;;;;;;;;;;;;;;-145.06;100.00;60892.56;5939284;23;19917;-92
2023/03/04 15:16:45;;;;;;;;;;;;;;;-145.06;100.00;60892.56;5939534;23;20602;-92
2023/03/04 15:19:26;;;;;;;;;;;;;;;-145.06;100.00;60892.56;5912932;23;19909;-92
2023/03/04 15:22:08;;;;;;;;;;;;;;;-145.06;100.00;60892.56;5933461;23;19940;-93
2023/03/04 15:24:48;;;;;;;;;;;;;;;-145.06;100.00;60892.56;5933227;23;19913;-92
2023/03/04 15:27:28;;;;;;;;;;;;;;;-145.06;100.00;60892.56;5938085;23;19909;-92
2023/03/04 15:30:14;;;;;;;;;;;;;;;-145.06;100.00;60892.56;5937728;23;20004;-92
2023/03/04 15:33:12;;;;;;;;;;;;;;;-145.06;100.00;60892.56;5938951;23;19909;-92
2023/03/04 15:35:59;;;;;;;;;;;;;;;-145.06;100.00;60892.56;5938119;23;19909;-92
2023/03/04 15:49:17;;;;;;;;;;;;;;;-145.06;100.00;60892.56;5788899;24;19910;-92
2023/03/04 15:55:31;;;;;;;;;;;;;;;-145.06;100.00;60892.56;5903577;23;19909;-92
2023/03/04 15:58:38;;;;;;;;;;;;;;;-145.06;100.00;60892.56;5938617;23;19909;-93
2023/03/04 16:01:52;;;;;;;;;;;;;;;;;;;;;
2023/03/04 16:05:03;;;;;;;;;;;;;;;-145.06;100.00;60892.56;5928059;23;19913;-93
2023/03/04 16:07:49;;;;;;;;;;;;;;;-145.06;100.00;60892.56;5916701;23;19909;-92
2023/03/04 16:10:56;;;;;;;;;;;;;;;-145.06;100.00;60892.56;5937721;23;20343;-92
2023/03/04 16:13:47;;;;;;;;;;;;;;;-145.06;100.00;60892.56;5916185;23;19908;-93
2023/03/04 16:16:58;;;;;;;;;;;;;;;-145.06;100.00;60892.56;5937994;23;19913;-92
2023/03/04 16:19:56;;;;;;;;;;;;;;;-145.06;100.00;60892.56;5917098;23;20332;-93
2023/03/04 16:23:07;;;;;;;;;;;;;;;-145.06;100.00;60892.56;5917852;23;20319;-93